sensor_id;sensor_type;location;lat;lon;timestamp;P1;durP1;ratioP1;P2;durP2;ratioP2
83761;SDS011;73752;49.594;8.734;2023-12-07T00:00:08;64.75;;;34.65;;
83761;SDS011;73752;49.594;8.734;2023-12-07T00:02:34;58.28;;;31.90;;
83761;SDS011;73752;49.594;8.734;2023-12-07T00:04:59;55.47;;;32.78;;
83761;SDS011;73752;49.594;8.734;2023-12-07T00:07:25;51.75;;;30.38;;
83761;SDS011;73752;49.594;8.734;2023-12-07T00:09:50;60.95;;;31.92;;
83761;SDS011;73752;49.594;8.734;2023-12-07T00:12:15;67.07;;;35.88;;
83761;SDS011;73752;49.594;8.734;2023-12-07T00:14:41;71.03;;;35.72;;
83761;SDS011;73752;49.594;8.734;2023-12-07T00:17:06;67.32;;;34.80;;
83761;SDS011;73752;49.594;8.734;2023-12-07T00:19:32;61.55;;;33.55;;
83761;SDS011;73752;49.594;8.734;2023-12-07T00:21:57;65.30;;;33.97;;
83761;SDS011;73752;49.594;8.734;2023-12-07T00:24:22;72.03;;;35.53;;
83761;SDS011;73752;49.594;8.734;2023-12-07T00:26:47;71.57;;;35.72;;
83761;SDS011;73752;49.594;8.734;2023-12-07T00:29:14;60.75;;;33.38;;
83761;SDS011;73752;49.594;8.734;2023-12-07T00:31:39;67.15;;;33.25;;
83761;SDS011;73752;49.594;8.734;2023-12-07T00:34:04;103.93;;;41.65;;
83761;SDS011;73752;49.594;8.734;2023-12-07T00:36:30;77.43;;;36.25;;
83761;SDS011;73752;49.594;8.734;2023-12-07T00:38:56;67.63;;;34.78;;
83761;SDS011;73752;49.594;8.734;2023-12-07T00:41:21;75.53;;;37.03;;
83761;SDS011;73752;49.594;8.734;2023-12-07T00:43:46;72.28;;;36.28;;
83761;SDS011;73752;49.594;8.734;2023-12-07T00:46:12;71.07;;;35.70;;
83761;SDS011;73752;49.594;8.734;2023-12-07T00:48:38;67.45;;;34.20;;
83761;SDS011;73752;49.594;8.734;2023-12-07T00:51:03;77.00;;;35.20;;
83761;SDS011;73752;49.594;8.734;2023-12-07T00:53:31;74.07;;;35.60;;
83761;SDS011;73752;49.594;8.734;2023-12-07T00:55:56;63.42;;;32.88;;
83761;SDS011;73752;49.594;8.734;2023-12-07T00:58:22;60.88;;;32.38;;
83761;SDS011;73752;49.594;8.734;2023-12-07T01:00:48;61.80;;;32.22;;
83761;SDS011;73752;49.594;8.734;2023-12-07T01:03:13;67.75;;;34.80;;
83761;SDS011;73752;49.594;8.734;2023-12-07T01:05:38;68.50;;;34.85;;
83761;SDS011;73752;49.594;8.734;2023-12-07T01:08:04;61.03;;;31.42;;
83761;SDS011;73752;49.594;8.734;2023-12-07T01:10:29;59.22;;;31.00;;
83761;SDS011;73752;49.594;8.734;2023-12-07T01:12:54;58.83;;;31.77;;
83761;SDS011;73752;49.594;8.734;2023-12-07T01:15:20;68.88;;;35.15;;
83761;SDS011;73752;49.594;8.734;2023-12-07T01:17:45;62.35;;;31.48;;
83761;SDS011;73752;49.594;8.734;2023-12-07T01:20:11;77.90;;;36.78;;
83761;SDS011;73752;49.594;8.734;2023-12-07T01:22:37;70.07;;;34.20;;
83761;SDS011;73752;49.594;8.734;2023-12-07T01:25:06;69.07;;;32.22;;
83761;SDS011;73752;49.594;8.734;2023-12-07T01:27:32;60.15;;;31.00;;
83761;SDS011;73752;49.594;8.734;2023-12-07T01:29:58;71.13;;;33.63;;
83761;SDS011;73752;49.594;8.734;2023-12-07T01:32:23;79.90;;;35.95;;
83761;SDS011;73752;49.594;8.734;2023-12-07T01:34:48;67.22;;;33.08;;
83761;SDS011;73752;49.594;8.734;2023-12-07T01:37:14;54.10;;;28.98;;
83761;SDS011;73752;49.594;8.734;2023-12-07T01:39:41;84.45;;;32.53;;
83761;SDS011;73752;49.594;8.734;2023-12-07T01:42:08;50.58;;;27.65;;
83761;SDS011;73752;49.594;8.734;2023-12-07T01:44:34;43.53;;;26.85;;
83761;SDS011;73752;49.594;8.734;2023-12-07T01:47:00;63.33;;;30.80;;
83761;SDS011;73752;49.594;8.734;2023-12-07T01:49:26;113.75;;;33.72;;
83761;SDS011;73752;49.594;8.734;2023-12-07T01:51:53;78.13;;;32.75;;
83761;SDS011;73752;49.594;8.734;2023-12-07T01:54:19;68.78;;;34.45;;
83761;SDS011;73752;49.594;8.734;2023-12-07T01:56:45;96.80;;;35.28;;
83761;SDS011;73752;49.594;8.734;2023-12-07T01:59:11;89.75;;;36.25;;
83761;SDS011;73752;49.594;8.734;2023-12-07T02:01:36;68.55;;;33.42;;
83761;SDS011;73752;49.594;8.734;2023-12-07T02:04:02;60.03;;;32.17;;
83761;SDS011;73752;49.594;8.734;2023-12-07T02:06:28;61.05;;;32.05;;
83761;SDS011;73752;49.594;8.734;2023-12-07T02:08:55;63.95;;;34.35;;
83761;SDS011;73752;49.594;8.734;2023-12-07T02:11:21;62.22;;;31.65;;
83761;SDS011;73752;49.594;8.734;2023-12-07T02:13:47;71.40;;;32.20;;
83761;SDS011;73752;49.594;8.734;2023-12-07T02:16:15;75.97;;;33.80;;
83761;SDS011;73752;49.594;8.734;2023-12-07T02:18:50;60.20;;;30.90;;
83761;SDS011;73752;49.594;8.734;2023-12-07T02:21:25;162.10;;;36.58;;
83761;SDS011;73752;49.594;8.734;2023-12-07T02:24:01;460.65;;;44.55;;
83761;SDS011;73752;49.594;8.734;2023-12-07T02:26:30;70.55;;;31.58;;
83761;SDS011;73752;49.594;8.734;2023-12-07T02:29:04;73.15;;;31.25;;
83761;SDS011;73752;49.594;8.734;2023-12-07T02:31:30;94.82;;;33.25;;
83761;SDS011;73752;49.594;8.734;2023-12-07T02:33:56;86.57;;;34.50;;
83761;SDS011;73752;49.594;8.734;2023-12-07T02:36:22;129.48;;;38.67;;
83761;SDS011;73752;49.594;8.734;2023-12-07T02:38:53;148.85;;;38.25;;
83761;SDS011;73752;49.594;8.734;2023-12-07T02:41:25;78.05;;;31.00;;
83761;SDS011;73752;49.594;8.734;2023-12-07T02:43:52;430.83;;;43.47;;
83761;SDS011;73752;49.594;8.734;2023-12-07T02:46:19;88.43;;;29.23;;
83761;SDS011;73752;49.594;8.734;2023-12-07T02:48:45;166.57;;;34.63;;
83761;SDS011;73752;49.594;8.734;2023-12-07T02:51:10;202.00;;;40.67;;
83761;SDS011;73752;49.594;8.734;2023-12-07T02:53:36;390.63;;;46.72;;
83761;SDS011;73752;49.594;8.734;2023-12-07T02:56:01;509.90;;;53.95;;
83761;SDS011;73752;49.594;8.734;2023-12-07T02:58:27;343.75;;;46.80;;
83761;SDS011;73752;49.594;8.734;2023-12-07T03:00:53;234.63;;;41.78;;
83761;SDS011;73752;49.594;8.734;2023-12-07T03:03:18;168.48;;;40.78;;
83761;SDS011;73752;49.594;8.734;2023-12-07T03:05:43;175.82;;;40.42;;
83761;SDS011;73752;49.594;8.734;2023-12-07T03:08:09;411.52;;;51.65;;
83761;SDS011;73752;49.594;8.734;2023-12-07T03:10:34;249.60;;;48.50;;
83761;SDS011;73752;49.594;8.734;2023-12-07T03:13:00;68.30;;;34.72;;
83761;SDS011;73752;49.594;8.734;2023-12-07T03:15:25;72.93;;;32.50;;
83761;SDS011;73752;49.594;8.734;2023-12-07T03:17:51;54.65;;;28.35;;
83761;SDS011;73752;49.594;8.734;2023-12-07T03:20:16;200.57;;;43.13;;
83761;SDS011;73752;49.594;8.734;2023-12-07T03:22:42;231.48;;;45.65;;
83761;SDS011;73752;49.594;8.734;2023-12-07T03:25:07;351.75;;;48.35;;
83761;SDS011;73752;49.594;8.734;2023-12-07T03:27:33;76.03;;;36.00;;
83761;SDS011;73752;49.594;8.734;2023-12-07T03:29:58;105.97;;;38.70;;
83761;SDS011;73752;49.594;8.734;2023-12-07T03:32:23;183.35;;;37.80;;
83761;SDS011;73752;49.594;8.734;2023-12-07T03:34:48;193.63;;;43.35;;
83761;SDS011;73752;49.594;8.734;2023-12-07T03:37:14;213.45;;;41.63;;
83761;SDS011;73752;49.594;8.734;2023-12-07T03:39:39;116.68;;;36.22;;
83761;SDS011;73752;49.594;8.734;2023-12-07T03:42:04;88.78;;;36.55;;
83761;SDS011;73752;49.594;8.734;2023-12-07T03:44:30;57.90;;;31.33;;
83761;SDS011;73752;49.594;8.734;2023-12-07T03:46:55;53.65;;;28.15;;
83761;SDS011;73752;49.594;8.734;2023-12-07T03:49:21;48.45;;;27.42;;
83761;SDS011;73752;49.594;8.734;2023-12-07T03:51:46;45.78;;;26.83;;
83761;SDS011;73752;49.594;8.734;2023-12-07T03:54:11;48.67;;;27.20;;
83761;SDS011;73752;49.594;8.734;2023-12-07T03:56:37;93.88;;;32.78;;
83761;SDS011;73752;49.594;8.734;2023-12-07T03:59:02;52.78;;;29.67;;
83761;SDS011;73752;49.594;8.734;2023-12-07T04:01:28;90.70;;;33.13;;
83761;SDS011;73752;49.594;8.734;2023-12-07T04:03:55;58.10;;;30.00;;
83761;SDS011;73752;49.594;8.734;2023-12-07T04:06:22;59.15;;;29.92;;
83761;SDS011;73752;49.594;8.734;2023-12-07T04:08:48;149.05;;;37.65;;
83761;SDS011;73752;49.594;8.734;2023-12-07T04:11:14;55.92;;;27.55;;
83761;SDS011;73752;49.594;8.734;2023-12-07T04:13:40;123.90;;;31.75;;
83761;SDS011;73752;49.594;8.734;2023-12-07T04:16:06;83.90;;;30.95;;
83761;SDS011;73752;49.594;8.734;2023-12-07T04:18:32;97.50;;;32.25;;
83761;SDS011;73752;49.594;8.734;2023-12-07T04:20:57;58.58;;;28.42;;
83761;SDS011;73752;49.594;8.734;2023-12-07T04:23:23;42.80;;;25.88;;
83761;SDS011;73752;49.594;8.734;2023-12-07T04:25:49;81.40;;;29.05;;
83761;SDS011;73752;49.594;8.734;2023-12-07T04:28:14;67.57;;;27.27;;
83761;SDS011;73752;49.594;8.734;2023-12-07T04:30:40;102.05;;;28.25;;
83761;SDS011;73752;49.594;8.734;2023-12-07T04:33:05;39.67;;;24.30;;
83761;SDS011;73752;49.594;8.734;2023-12-07T04:35:30;40.88;;;24.65;;
83761;SDS011;73752;49.594;8.734;2023-12-07T04:37:56;68.35;;;25.13;;
83761;SDS011;73752;49.594;8.734;2023-12-07T04:40:21;109.05;;;28.75;;
83761;SDS011;73752;49.594;8.734;2023-12-07T04:42:47;75.30;;;26.85;;
83761;SDS011;73752;49.594;8.734;2023-12-07T04:45:12;62.97;;;24.98;;
83761;SDS011;73752;49.594;8.734;2023-12-07T04:47:37;37.75;;;22.23;;
83761;SDS011;73752;49.594;8.734;2023-12-07T04:50:03;43.88;;;25.27;;
83761;SDS011;73752;49.594;8.734;2023-12-07T04:52:29;41.45;;;24.65;;
83761;SDS011;73752;49.594;8.734;2023-12-07T04:54:54;40.65;;;23.75;;
83761;SDS011;73752;49.594;8.734;2023-12-07T04:57:19;173.63;;;31.45;;
83761;SDS011;73752;49.594;8.734;2023-12-07T04:59:45;50.80;;;21.52;;
83761;SDS011;73752;49.594;8.734;2023-12-07T05:02:13;59.40;;;22.25;;
83761;SDS011;73752;49.594;8.734;2023-12-07T05:04:39;47.92;;;22.45;;
83761;SDS011;73752;49.594;8.734;2023-12-07T05:07:04;41.30;;;22.70;;
83761;SDS011;73752;49.594;8.734;2023-12-07T05:09:29;60.10;;;23.05;;
83761;SDS011;73752;49.594;8.734;2023-12-07T05:11:56;62.47;;;25.80;;
83761;SDS011;73752;49.594;8.734;2023-12-07T05:14:21;91.80;;;26.80;;
83761;SDS011;73752;49.594;8.734;2023-12-07T05:16:47;37.53;;;22.90;;
83761;SDS011;73752;49.594;8.734;2023-12-07T05:19:13;48.55;;;22.23;;
83761;SDS011;73752;49.594;8.734;2023-12-07T05:21:38;35.30;;;21.27;;
83761;SDS011;73752;49.594;8.734;2023-12-07T05:24:04;46.25;;;25.30;;
83761;SDS011;73752;49.594;8.734;2023-12-07T05:26:29;37.67;;;21.92;;
83761;SDS011;73752;49.594;8.734;2023-12-07T05:28:57;34.03;;;21.08;;
83761;SDS011;73752;49.594;8.734;2023-12-07T05:31:24;35.35;;;22.08;;
83761;SDS011;73752;49.594;8.734;2023-12-07T05:33:51;36.47;;;20.88;;
83761;SDS011;73752;49.594;8.734;2023-12-07T05:36:16;30.80;;;19.55;;
83761;SDS011;73752;49.594;8.734;2023-12-07T05:38:41;32.63;;;20.38;;
83761;SDS011;73752;49.594;8.734;2023-12-07T05:41:07;32.47;;;18.33;;
83761;SDS011;73752;49.594;8.734;2023-12-07T05:43:32;35.28;;;20.75;;
83761;SDS011;73752;49.594;8.734;2023-12-07T05:45:58;40.85;;;23.77;;
83761;SDS011;73752;49.594;8.734;2023-12-07T05:48:24;36.92;;;22.92;;
83761;SDS011;73752;49.594;8.734;2023-12-07T05:50:51;41.95;;;23.52;;
83761;SDS011;73752;49.594;8.734;2023-12-07T05:53:21;49.10;;;26.05;;
83761;SDS011;73752;49.594;8.734;2023-12-07T05:55:48;49.45;;;26.17;;
83761;SDS011;73752;49.594;8.734;2023-12-07T05:58:14;45.35;;;25.85;;
83761;SDS011;73752;49.594;8.734;2023-12-07T06:00:43;56.63;;;29.10;;
83761;SDS011;73752;49.594;8.734;2023-12-07T06:03:15;52.75;;;26.88;;
83761;SDS011;73752;49.594;8.734;2023-12-07T06:05:43;52.67;;;27.95;;
83761;SDS011;73752;49.594;8.734;2023-12-07T06:08:12;57.17;;;28.85;;
83761;SDS011;73752;49.594;8.734;2023-12-07T06:10:39;51.13;;;27.55;;
83761;SDS011;73752;49.594;8.734;2023-12-07T06:13:06;48.33;;;26.55;;
83761;SDS011;73752;49.594;8.734;2023-12-07T06:15:33;52.00;;;27.75;;
83761;SDS011;73752;49.594;8.734;2023-12-07T06:18:00;55.90;;;29.70;;
83761;SDS011;73752;49.594;8.734;2023-12-07T06:20:27;69.43;;;35.50;;
83761;SDS011;73752;49.594;8.734;2023-12-07T06:22:54;60.20;;;32.08;;
83761;SDS011;73752;49.594;8.734;2023-12-07T06:25:21;46.00;;;25.80;;
83761;SDS011;73752;49.594;8.734;2023-12-07T06:27:53;52.63;;;29.08;;
83761;SDS011;73752;49.594;8.734;2023-12-07T06:30:21;49.83;;;26.10;;
83761;SDS011;73752;49.594;8.734;2023-12-07T06:32:50;49.80;;;27.05;;
83761;SDS011;73752;49.594;8.734;2023-12-07T06:35:17;51.38;;;27.67;;
83761;SDS011;73752;49.594;8.734;2023-12-07T06:37:44;62.30;;;32.20;;
83761;SDS011;73752;49.594;8.734;2023-12-07T06:40:12;59.92;;;31.13;;
83761;SDS011;73752;49.594;8.734;2023-12-07T06:42:39;51.15;;;28.27;;
83761;SDS011;73752;49.594;8.734;2023-12-07T06:45:07;54.25;;;29.30;;
83761;SDS011;73752;49.594;8.734;2023-12-07T06:47:37;49.40;;;27.67;;
83761;SDS011;73752;49.594;8.734;2023-12-07T06:50:04;50.17;;;27.90;;
83761;SDS011;73752;49.594;8.734;2023-12-07T06:52:40;51.17;;;28.40;;
83761;SDS011;73752;49.594;8.734;2023-12-07T06:55:07;43.13;;;25.65;;
83761;SDS011;73752;49.594;8.734;2023-12-07T06:57:37;46.88;;;26.10;;
83761;SDS011;73752;49.594;8.734;2023-12-07T07:00:04;61.47;;;30.80;;
83761;SDS011;73752;49.594;8.734;2023-12-07T07:02:36;54.08;;;29.58;;
83761;SDS011;73752;49.594;8.734;2023-12-07T07:05:05;70.40;;;35.92;;
83761;SDS011;73752;49.594;8.734;2023-12-07T07:07:31;59.63;;;30.40;;
83761;SDS011;73752;49.594;8.734;2023-12-07T07:09:57;54.75;;;28.92;;
83761;SDS011;73752;49.594;8.734;2023-12-07T07:12:22;52.88;;;28.00;;
83761;SDS011;73752;49.594;8.734;2023-12-07T07:14:48;75.53;;;33.65;;
83761;SDS011;73752;49.594;8.734;2023-12-07T07:17:14;65.55;;;31.60;;
83761;SDS011;73752;49.594;8.734;2023-12-07T07:19:40;58.97;;;29.27;;
83761;SDS011;73752;49.594;8.734;2023-12-07T07:22:06;51.65;;;27.85;;
83761;SDS011;73752;49.594;8.734;2023-12-07T07:24:31;51.15;;;26.65;;
83761;SDS011;73752;49.594;8.734;2023-12-07T07:26:56;53.55;;;26.67;;
83761;SDS011;73752;49.594;8.734;2023-12-07T07:29:22;57.08;;;26.75;;
83761;SDS011;73752;49.594;8.734;2023-12-07T07:31:47;55.63;;;26.55;;
83761;SDS011;73752;49.594;8.734;2023-12-07T07:34:12;55.50;;;27.75;;
83761;SDS011;73752;49.594;8.734;2023-12-07T07:36:38;54.55;;;27.40;;
83761;SDS011;73752;49.594;8.734;2023-12-07T07:39:03;57.40;;;28.05;;
83761;SDS011;73752;49.594;8.734;2023-12-07T07:41:32;62.15;;;29.67;;
83761;SDS011;73752;49.594;8.734;2023-12-07T07:43:57;54.85;;;31.17;;
83761;SDS011;73752;49.594;8.734;2023-12-07T07:46:26;64.72;;;31.75;;
83761;SDS011;73752;49.594;8.734;2023-12-07T07:48:51;63.65;;;31.88;;
83761;SDS011;73752;49.594;8.734;2023-12-07T07:51:16;65.97;;;33.67;;
83761;SDS011;73752;49.594;8.734;2023-12-07T07:53:42;112.85;;;60.75;;
83761;SDS011;73752;49.594;8.734;2023-12-07T07:56:08;165.60;;;93.65;;
83761;SDS011;73752;49.594;8.734;2023-12-07T07:58:34;172.35;;;94.85;;
83761;SDS011;73752;49.594;8.734;2023-12-07T08:00:59;115.88;;;63.38;;
83761;SDS011;73752;49.594;8.734;2023-12-07T08:03:25;78.53;;;42.40;;
83761;SDS011;73752;49.594;8.734;2023-12-07T08:05:50;75.40;;;36.35;;
83761;SDS011;73752;49.594;8.734;2023-12-07T08:08:15;69.15;;;33.22;;
83761;SDS011;73752;49.594;8.734;2023-12-07T08:10:41;68.55;;;33.58;;
83761;SDS011;73752;49.594;8.734;2023-12-07T08:13:06;70.65;;;33.75;;
83761;SDS011;73752;49.594;8.734;2023-12-07T08:15:32;77.70;;;34.35;;
83761;SDS011;73752;49.594;8.734;2023-12-07T08:17:58;59.17;;;31.35;;
83761;SDS011;73752;49.594;8.734;2023-12-07T08:20:23;61.88;;;31.67;;
83761;SDS011;73752;49.594;8.734;2023-12-07T08:22:49;70.22;;;32.60;;
83761;SDS011;73752;49.594;8.734;2023-12-07T08:25:15;64.32;;;32.75;;
83761;SDS011;73752;49.594;8.734;2023-12-07T08:27:42;57.28;;;32.60;;
83761;SDS011;73752;49.594;8.734;2023-12-07T08:30:09;56.17;;;30.63;;
83761;SDS011;73752;49.594;8.734;2023-12-07T08:32:35;64.32;;;33.53;;
83761;SDS011;73752;49.594;8.734;2023-12-07T08:35:00;92.45;;;36.85;;
83761;SDS011;73752;49.594;8.734;2023-12-07T08:37:26;306.98;;;50.75;;
83761;SDS011;73752;49.594;8.734;2023-12-07T08:39:51;86.85;;;38.38;;
83761;SDS011;73752;49.594;8.734;2023-12-07T08:42:16;270.48;;;45.80;;
83761;SDS011;73752;49.594;8.734;2023-12-07T08:44:42;77.85;;;39.13;;
83761;SDS011;73752;49.594;8.734;2023-12-07T08:47:09;96.10;;;42.50;;
83761;SDS011;73752;49.594;8.734;2023-12-07T08:49:34;314.58;;;52.42;;
83761;SDS011;73752;49.594;8.734;2023-12-07T08:51:59;87.22;;;43.97;;
83761;SDS011;73752;49.594;8.734;2023-12-07T08:54:25;114.35;;;46.97;;
83761;SDS011;73752;49.594;8.734;2023-12-07T08:56:50;90.18;;;42.60;;
83761;SDS011;73752;49.594;8.734;2023-12-07T08:59:16;98.30;;;39.05;;
83761;SDS011;73752;49.594;8.734;2023-12-07T09:01:41;82.72;;;41.05;;
83761;SDS011;73752;49.594;8.734;2023-12-07T09:04:07;94.95;;;38.95;;
83761;SDS011;73752;49.594;8.734;2023-12-07T09:06:32;125.38;;;44.03;;
83761;SDS011;73752;49.594;8.734;2023-12-07T09:08:58;74.15;;;38.08;;
83761;SDS011;73752;49.594;8.734;2023-12-07T09:11:23;80.45;;;38.50;;
83761;SDS011;73752;49.594;8.734;2023-12-07T09:13:49;108.75;;;42.22;;
83761;SDS011;73752;49.594;8.734;2023-12-07T09:16:15;69.05;;;37.58;;
83761;SDS011;73752;49.594;8.734;2023-12-07T09:18:43;70.45;;;37.20;;
83761;SDS011;73752;49.594;8.734;2023-12-07T09:21:11;80.75;;;40.28;;
83761;SDS011;73752;49.594;8.734;2023-12-07T09:23:36;77.80;;;37.97;;
83761;SDS011;73752;49.594;8.734;2023-12-07T09:26:02;78.63;;;39.63;;
83761;SDS011;73752;49.594;8.734;2023-12-07T09:28:28;63.40;;;35.47;;
83761;SDS011;73752;49.594;8.734;2023-12-07T09:30:53;67.10;;;36.05;;
83761;SDS011;73752;49.594;8.734;2023-12-07T09:33:19;70.63;;;37.22;;
83761;SDS011;73752;49.594;8.734;2023-12-07T09:35:44;80.00;;;40.83;;
83761;SDS011;73752;49.594;8.734;2023-12-07T09:38:09;95.15;;;47.83;;
83761;SDS011;73752;49.594;8.734;2023-12-07T09:40:35;95.47;;;46.80;;
83761;SDS011;73752;49.594;8.734;2023-12-07T09:43:00;91.63;;;43.92;;
83761;SDS011;73752;49.594;8.734;2023-12-07T09:45:26;93.63;;;47.65;;
83761;SDS011;73752;49.594;8.734;2023-12-07T09:47:51;95.22;;;51.63;;
83761;SDS011;73752;49.594;8.734;2023-12-07T09:50:19;98.07;;;49.70;;
83761;SDS011;73752;49.594;8.734;2023-12-07T09:52:48;95.28;;;49.60;;
83761;SDS011;73752;49.594;8.734;2023-12-07T09:55:16;158.00;;;49.65;;
83761;SDS011;73752;49.594;8.734;2023-12-07T09:57:42;167.98;;;45.13;;
83761;SDS011;73752;49.594;8.734;2023-12-07T10:00:07;79.03;;;42.92;;
83761;SDS011;73752;49.594;8.734;2023-12-07T10:02:38;87.43;;;45.08;;
83761;SDS011;73752;49.594;8.734;2023-12-07T10:05:07;84.95;;;43.30;;
83761;SDS011;73752;49.594;8.734;2023-12-07T10:07:39;84.90;;;41.50;;
83761;SDS011;73752;49.594;8.734;2023-12-07T10:10:06;83.80;;;39.70;;
83761;SDS011;73752;49.594;8.734;2023-12-07T10:12:32;75.07;;;39.40;;
83761;SDS011;73752;49.594;8.734;2023-12-07T10:15:00;85.13;;;42.42;;
83761;SDS011;73752;49.594;8.734;2023-12-07T10:20:17;74.37;;;40.47;;
83761;SDS011;73752;49.594;8.734;2023-12-07T10:22:45;68.13;;;37.55;;
83761;SDS011;73752;49.594;8.734;2023-12-07T10:25:11;75.80;;;39.60;;
83761;SDS011;73752;49.594;8.734;2023-12-07T10:27:38;66.57;;;37.83;;
83761;SDS011;73752;49.594;8.734;2023-12-07T10:30:06;52.33;;;29.27;;
83761;SDS011;73752;49.594;8.734;2023-12-07T10:32:37;51.50;;;30.50;;
83761;SDS011;73752;49.594;8.734;2023-12-07T10:35:04;51.38;;;28.95;;
83761;SDS011;73752;49.594;8.734;2023-12-07T10:37:33;49.90;;;28.40;;
83761;SDS011;73752;49.594;8.734;2023-12-07T10:39:58;53.83;;;30.00;;
83761;SDS011;73752;49.594;8.734;2023-12-07T10:42:24;51.05;;;30.00;;
83761;SDS011;73752;49.594;8.734;2023-12-07T10:44:50;49.08;;;27.88;;
83761;SDS011;73752;49.594;8.734;2023-12-07T10:47:22;50.30;;;29.27;;
83761;SDS011;73752;49.594;8.734;2023-12-07T10:49:48;48.22;;;30.42;;
83761;SDS011;73752;49.594;8.734;2023-12-07T10:52:20;56.55;;;32.15;;
83761;SDS011;73752;49.594;8.734;2023-12-07T10:57:30;45.33;;;27.70;;
83761;SDS011;73752;49.594;8.734;2023-12-07T10:59:58;46.03;;;26.60;;
83761;SDS011;73752;49.594;8.734;2023-12-07T11:02:25;54.15;;;29.70;;
83761;SDS011;73752;49.594;8.734;2023-12-07T11:04:52;56.38;;;30.40;;
83761;SDS011;73752;49.594;8.734;2023-12-07T11:07:20;51.97;;;31.02;;
83761;SDS011;73752;49.594;8.734;2023-12-07T11:09:53;49.28;;;27.25;;
83761;SDS011;73752;49.594;8.734;2023-12-07T11:12:29;36.72;;;23.20;;
83761;SDS011;73752;49.594;8.734;2023-12-07T11:15:01;39.65;;;23.67;;
83761;SDS011;73752;49.594;8.734;2023-12-07T11:17:28;31.13;;;18.55;;
83761;SDS011;73752;49.594;8.734;2023-12-07T11:19:53;22.02;;;14.13;;
83761;SDS011;73752;49.594;8.734;2023-12-07T11:22:19;25.13;;;15.00;;
83761;SDS011;73752;49.594;8.734;2023-12-07T11:24:57;26.13;;;14.43;;
83761;SDS011;73752;49.594;8.734;2023-12-07T11:27:28;19.02;;;12.75;;
83761;SDS011;73752;49.594;8.734;2023-12-07T11:29:54;19.10;;;11.63;;
83761;SDS011;73752;49.594;8.734;2023-12-07T11:32:19;20.17;;;11.25;;
83761;SDS011;73752;49.594;8.734;2023-12-07T11:34:45;22.83;;;12.60;;
83761;SDS011;73752;49.594;8.734;2023-12-07T11:37:10;23.65;;;13.02;;
83761;SDS011;73752;49.594;8.734;2023-12-07T11:39:41;17.25;;;9.85;;
83761;SDS011;73752;49.594;8.734;2023-12-07T11:42:11;21.27;;;11.88;;
83761;SDS011;73752;49.594;8.734;2023-12-07T11:44:41;17.40;;;11.05;;
83761;SDS011;73752;49.594;8.734;2023-12-07T11:47:09;20.23;;;11.80;;
83761;SDS011;73752;49.594;8.734;2023-12-07T11:49:35;22.33;;;12.18;;
83761;SDS011;73752;49.594;8.734;2023-12-07T11:52:11;23.33;;;12.77;;
83761;SDS011;73752;49.594;8.734;2023-12-07T11:54:38;21.17;;;12.55;;
83761;SDS011;73752;49.594;8.734;2023-12-07T11:57:03;21.70;;;12.05;;
83761;SDS011;73752;49.594;8.734;2023-12-07T11:59:29;23.75;;;12.45;;
83761;SDS011;73752;49.594;8.734;2023-12-07T12:01:58;21.23;;;12.20;;
83761;SDS011;73752;49.594;8.734;2023-12-07T12:04:24;20.67;;;11.90;;
83761;SDS011;73752;49.594;8.734;2023-12-07T12:06:49;24.48;;;13.75;;
83761;SDS011;73752;49.594;8.734;2023-12-07T12:09:15;21.17;;;11.70;;
83761;SDS011;73752;49.594;8.734;2023-12-07T12:11:44;22.52;;;13.05;;
83761;SDS011;73752;49.594;8.734;2023-12-07T12:14:11;21.50;;;12.73;;
83761;SDS011;73752;49.594;8.734;2023-12-07T12:16:38;20.67;;;12.70;;
83761;SDS011;73752;49.594;8.734;2023-12-07T12:19:04;18.38;;;10.52;;
83761;SDS011;73752;49.594;8.734;2023-12-07T12:21:33;18.52;;;11.93;;
83761;SDS011;73752;49.594;8.734;2023-12-07T12:23:59;19.13;;;11.30;;
83761;SDS011;73752;49.594;8.734;2023-12-07T12:26:24;20.83;;;11.40;;
83761;SDS011;73752;49.594;8.734;2023-12-07T12:28:49;19.95;;;12.20;;
83761;SDS011;73752;49.594;8.734;2023-12-07T12:31:15;27.02;;;13.77;;
83761;SDS011;73752;49.594;8.734;2023-12-07T12:33:40;21.58;;;12.77;;
83761;SDS011;73752;49.594;8.734;2023-12-07T12:36:06;22.25;;;13.10;;
83761;SDS011;73752;49.594;8.734;2023-12-07T12:38:32;22.48;;;12.63;;
83761;SDS011;73752;49.594;8.734;2023-12-07T12:40:58;21.30;;;11.50;;
83761;SDS011;73752;49.594;8.734;2023-12-07T12:43:23;22.70;;;13.00;;
83761;SDS011;73752;49.594;8.734;2023-12-07T12:45:49;25.10;;;12.27;;
83761;SDS011;73752;49.594;8.734;2023-12-07T12:48:14;23.48;;;11.52;;
83761;SDS011;73752;49.594;8.734;2023-12-07T12:50:40;17.90;;;11.20;;
83761;SDS011;73752;49.594;8.734;2023-12-07T12:53:07;18.77;;;11.48;;
83761;SDS011;73752;49.594;8.734;2023-12-07T12:55:39;21.42;;;12.60;;
83761;SDS011;73752;49.594;8.734;2023-12-07T12:58:06;16.80;;;10.27;;
83761;SDS011;73752;49.594;8.734;2023-12-07T13:00:33;22.20;;;11.77;;
83761;SDS011;73752;49.594;8.734;2023-12-07T13:03:03;20.42;;;10.95;;
83761;SDS011;73752;49.594;8.734;2023-12-07T13:05:29;20.15;;;10.80;;
83761;SDS011;73752;49.594;8.734;2023-12-07T13:07:55;20.60;;;11.00;;
83761;SDS011;73752;49.594;8.734;2023-12-07T13:10:20;16.90;;;9.80;;
83761;SDS011;73752;49.594;8.734;2023-12-07T13:12:46;19.40;;;9.93;;
83761;SDS011;73752;49.594;8.734;2023-12-07T13:15:12;22.63;;;12.32;;
83761;SDS011;73752;49.594;8.734;2023-12-07T13:17:38;19.67;;;11.52;;
83761;SDS011;73752;49.594;8.734;2023-12-07T13:20:07;20.70;;;11.20;;
83761;SDS011;73752;49.594;8.734;2023-12-07T13:22:39;26.13;;;12.45;;
83761;SDS011;73752;49.594;8.734;2023-12-07T13:25:05;21.98;;;11.82;;
83761;SDS011;73752;49.594;8.734;2023-12-07T13:27:34;23.08;;;12.85;;
83761;SDS011;73752;49.594;8.734;2023-12-07T13:30:01;25.42;;;12.45;;
83761;SDS011;73752;49.594;8.734;2023-12-07T13:35:01;25.45;;;13.98;;
83761;SDS011;73752;49.594;8.734;2023-12-07T13:37:27;25.35;;;13.95;;
83761;SDS011;73752;49.594;8.734;2023-12-07T13:39:53;26.67;;;13.77;;
83761;SDS011;73752;49.594;8.734;2023-12-07T13:42:23;27.60;;;13.07;;
83761;SDS011;73752;49.594;8.734;2023-12-07T13:44:51;24.58;;;15.48;;
83761;SDS011;73752;49.594;8.734;2023-12-07T13:47:18;29.92;;;14.25;;
83761;SDS011;73752;49.594;8.734;2023-12-07T13:49:45;26.45;;;15.23;;
83761;SDS011;73752;49.594;8.734;2023-12-07T13:52:10;29.83;;;15.85;;
83761;SDS011;73752;49.594;8.734;2023-12-07T13:54:36;24.80;;;15.15;;
83761;SDS011;73752;49.594;8.734;2023-12-07T13:57:01;23.60;;;14.73;;
83761;SDS011;73752;49.594;8.734;2023-12-07T13:59:28;24.67;;;13.05;;
83761;SDS011;73752;49.594;8.734;2023-12-07T14:01:53;29.45;;;16.08;;
83761;SDS011;73752;49.594;8.734;2023-12-07T14:04:20;26.60;;;13.95;;
83761;SDS011;73752;49.594;8.734;2023-12-07T14:06:45;20.40;;;13.07;;
83761;SDS011;73752;49.594;8.734;2023-12-07T14:09:11;22.80;;;13.25;;
83761;SDS011;73752;49.594;8.734;2023-12-07T14:11:36;24.30;;;12.82;;
83761;SDS011;73752;49.594;8.734;2023-12-07T14:14:01;25.33;;;12.75;;
83761;SDS011;73752;49.594;8.734;2023-12-07T14:16:28;22.42;;;12.13;;
83761;SDS011;73752;49.594;8.734;2023-12-07T14:18:54;21.23;;;12.02;;
83761;SDS011;73752;49.594;8.734;2023-12-07T14:21:19;21.33;;;11.68;;
83761;SDS011;73752;49.594;8.734;2023-12-07T14:23:45;23.15;;;12.23;;